sensor_id;sensor_type;location;lat;lon;timestamp;temperature;humidity
18597;DHT22;9428;50.950;6.912;2022-07-09T00:01:24;19.20;99.90
18597;DHT22;9428;50.950;6.912;2022-07-09T00:04:12;19.20;99.90
18597;DHT22;9428;50.950;6.912;2022-07-09T00:07:00;19.10;99.90
18597;DHT22;9428;50.950;6.912;2022-07-09T00:09:47;19.20;99.90
18597;DHT22;9428;50.950;6.912;2022-07-09T00:12:34;19.20;99.90
18597;DHT22;9428;50.950;6.912;2022-07-09T00:15:21;19.20;99.90
18597;DHT22;9428;50.950;6.912;2022-07-09T00:18:10;19.20;99.90
18597;DHT22;9428;50.950;6.912;2022-07-09T00:20:59;19.10;99.90
18597;DHT22;9428;50.950;6.912;2022-07-09T00:23:46;19.10;99.90
18597;DHT22;9428;50.950;6.912;2022-07-09T00:26:33;19.20;99.90
18597;DHT22;9428;50.950;6.912;2022-07-09T00:29:20;19.10;99.90
18597;DHT22;9428;50.950;6.912;2022-07-09T00:32:08;19.00;99.90
18597;DHT22;9428;50.950;6.912;2022-07-09T00:34:55;19.10;99.90
18597;DHT22;9428;50.950;6.912;2022-07-09T00:37:44;19.10;99.90
18597;DHT22;9428;50.950;6.912;2022-07-09T00:40:31;19.00;99.90
18597;DHT22;9428;50.950;6.912;2022-07-09T00:43:22;19.00;99.90
18597;DHT22;9428;50.950;6.912;2022-07-09T00:46:09;19.00;99.90
18597;DHT22;9428;50.950;6.912;2022-07-09T00:48:57;18.90;99.90
18597;DHT22;9428;50.950;6.912;2022-07-09T00:51:49;18.90;99.90
18597;DHT22;9428;50.950;6.912;2022-07-09T00:54:38;18.90;99.90
18597;DHT22;9428;50.950;6.912;2022-07-09T00:57:26;18.90;99.90
18597;DHT22;9428;50.950;6.912;2022-07-09T01:00:14;18.90;99.90
18597;DHT22;9428;50.950;6.912;2022-07-09T01:03:01;18.90;99.90
18597;DHT22;9428;50.950;6.912;2022-07-09T01:05:49;18.90;99.90
18597;DHT22;9428;50.950;6.912;2022-07-09T01:08:36;18.80;99.90
18597;DHT22;9428;50.950;6.912;2022-07-09T01:11:29;18.70;99.90
18597;DHT22;9428;50.950;6.912;2022-07-09T01:14:16;18.60;99.90
18597;DHT22;9428;50.950;6.912;2022-07-09T01:17:05;18.60;99.90
18597;DHT22;9428;50.950;6.912;2022-07-09T01:19:53;18.70;99.90
18597;DHT22;9428;50.950;6.912;2022-07-09T01:22:41;18.70;99.90
18597;DHT22;9428;50.950;6.912;2022-07-09T01:25:34;18.60;99.90
18597;DHT22;9428;50.950;6.912;2022-07-09T01:28:21;18.60;99.90
18597;DHT22;9428;50.950;6.912;2022-07-09T01:31:09;18.60;99.90
18597;DHT22;9428;50.950;6.912;2022-07-09T01:33:56;18.50;99.90
18597;DHT22;9428;50.950;6.912;2022-07-09T01:36:43;18.70;99.90
18597;DHT22;9428;50.950;6.912;2022-07-09T01:39:32;18.60;99.90
18597;DHT22;9428;50.950;6.912;2022-07-09T01:42:20;18.60;99.90
18597;DHT22;9428;50.950;6.912;2022-07-09T01:45:07;18.60;99.90
18597;DHT22;9428;50.950;6.912;2022-07-09T01:47:55;18.50;99.90
18597;DHT22;9428;50.950;6.912;2022-07-09T01:50:42;18.50;99.90
18597;DHT22;9428;50.950;6.912;2022-07-09T01:53:29;18.50;99.90
18597;DHT22;9428;50.950;6.912;2022-07-09T01:56:20;18.50;99.90
18597;DHT22;9428;50.950;6.912;2022-07-09T01:59:08;18.50;99.90
18597;DHT22;9428;50.950;6.912;2022-07-09T02:01:55;18.50;99.90
18597;DHT22;9428;50.950;6.912;2022-07-09T02:04:42;18.50;99.90
18597;DHT22;9428;50.950;6.912;2022-07-09T02:07:31;18.50;99.90
18597;DHT22;9428;50.950;6.912;2022-07-09T02:10:18;18.40;99.90
18597;DHT22;9428;50.950;6.912;2022-07-09T02:13:07;18.40;99.90
18597;DHT22;9428;50.950;6.912;2022-07-09T02:15:54;18.30;99.90
18597;DHT22;9428;50.950;6.912;2022-07-09T02:18:41;18.40;99.90
18597;DHT22;9428;50.950;6.912;2022-07-09T02:21:28;18.40;99.90
18597;DHT22;9428;50.950;6.912;2022-07-09T02:24:16;18.30;99.90
18597;DHT22;9428;50.950;6.912;2022-07-09T02:27:04;18.30;99.90
18597;DHT22;9428;50.950;6.912;2022-07-09T02:29:52;18.30;99.90
18597;DHT22;9428;50.950;6.912;2022-07-09T02:32:40;18.30;99.90
18597;DHT22;9428;50.950;6.912;2022-07-09T02:35:27;18.30;99.90
18597;DHT22;9428;50.950;6.912;2022-07-09T02:38:14;18.30;99.90
18597;DHT22;9428;50.950;6.912;2022-07-09T02:41:01;18.30;99.90
18597;DHT22;9428;50.950;6.912;2022-07-09T02:43:49;18.20;99.90
18597;DHT22;9428;50.950;6.912;2022-07-09T02:46:38;18.20;99.90
18597;DHT22;9428;50.950;6.912;2022-07-09T02:49:25;18.20;99.90
18597;DHT22;9428;50.950;6.912;2022-07-09T02:52:12;18.20;99.90
18597;DHT22;9428;50.950;6.912;2022-07-09T02:54:59;18.30;99.90
18597;DHT22;9428;50.950;6.912;2022-07-09T02:57:47;18.20;99.90
18597;DHT22;9428;50.950;6.912;2022-07-09T03:00:34;18.20;99.90
18597;DHT22;9428;50.950;6.912;2022-07-09T03:03:23;18.30;99.90
18597;DHT22;9428;50.950;6.912;2022-07-09T03:06:10;18.30;99.90
18597;DHT22;9428;50.950;6.912;2022-07-09T03:08:58;18.20;99.90
18597;DHT22;9428;50.950;6.912;2022-07-09T03:11:45;18.20;99.90
18597;DHT22;9428;50.950;6.912;2022-07-09T03:14:33;18.10;99.90
18597;DHT22;9428;50.950;6.912;2022-07-09T03:17:20;18.20;99.90
18597;DHT22;9428;50.950;6.912;2022-07-09T03:20:10;18.20;99.90
18597;DHT22;9428;50.950;6.912;2022-07-09T03:22:58;18.20;99.90
18597;DHT22;9428;50.950;6.912;2022-07-09T03:25:45;18.20;99.90
18597;DHT22;9428;50.950;6.912;2022-07-09T03:28:32;18.20;99.90
18597;DHT22;9428;50.950;6.912;2022-07-09T03:31:19;18.20;99.90
18597;DHT22;9428;50.950;6.912;2022-07-09T03:34:06;18.10;99.90
18597;DHT22;9428;50.950;6.912;2022-07-09T03:36:55;18.10;99.90
18597;DHT22;9428;50.950;6.912;2022-07-09T03:39:42;18.10;99.90
18597;DHT22;9428;50.950;6.912;2022-07-09T03:42:30;18.20;99.90
18597;DHT22;9428;50.950;6.912;2022-07-09T03:45:18;18.10;99.90
18597;DHT22;9428;50.950;6.912;2022-07-09T03:48:06;18.20;99.90
18597;DHT22;9428;50.950;6.912;2022-07-09T03:50:53;18.20;99.90
18597;DHT22;9428;50.950;6.912;2022-07-09T03:53:42;18.20;99.90
18597;DHT22;9428;50.950;6.912;2022-07-09T03:56:29;18.20;99.90
18597;DHT22;9428;50.950;6.912;2022-07-09T03:59:17;18.30;99.90
18597;DHT22;9428;50.950;6.912;2022-07-09T04:02:04;18.10;99.90
18597;DHT22;9428;50.950;6.912;2022-07-09T04:04:52;18.10;99.90
18597;DHT22;9428;50.950;6.912;2022-07-09T04:07:42;18.10;99.90
18597;DHT22;9428;50.950;6.912;2022-07-09T04:10:31;18.00;99.90
18597;DHT22;9428;50.950;6.912;2022-07-09T04:13:18;18.00;99.90
18597;DHT22;9428;50.950;6.912;2022-07-09T04:16:06;17.90;99.90
18597;DHT22;9428;50.950;6.912;2022-07-09T04:18:53;17.90;99.90
18597;DHT22;9428;50.950;6.912;2022-07-09T04:21:41;18.00;99.90
18597;DHT22;9428;50.950;6.912;2022-07-09T04:24:28;17.90;99.90
18597;DHT22;9428;50.950;6.912;2022-07-09T04:27:17;17.90;99.90
18597;DHT22;9428;50.950;6.912;2022-07-09T04:30:05;17.80;99.90
18597;DHT22;9428;50.950;6.912;2022-07-09T04:32:52;17.80;99.90
18597;DHT22;9428;50.950;6.912;2022-07-09T04:35:40;17.80;99.90
18597;DHT22;9428;50.950;6.912;2022-07-09T04:38:27;17.70;99.90
18597;DHT22;9428;50.950;6.912;2022-07-09T04:41:14;17.70;99.90
18597;DHT22;9428;50.950;6.912;2022-07-09T04:44:03;17.90;99.90
18597;DHT22;9428;50.950;6.912;2022-07-09T04:46:51;17.80;99.90
18597;DHT22;9428;50.950;6.912;2022-07-09T04:49:38;17.90;99.90
18597;DHT22;9428;50.950;6.912;2022-07-09T04:52:25;18.00;99.90
18597;DHT22;9428;50.950;6.912;2022-07-09T04:55:14;18.10;99.90
18597;DHT22;9428;50.950;6.912;2022-07-09T04:58:02;18.10;99.90
18597;DHT22;9428;50.950;6.912;2022-07-09T05:00:51;18.10;99.90
18597;DHT22;9428;50.950;6.912;2022-07-09T05:03:38;18.10;99.90
18597;DHT22;9428;50.950;6.912;2022-07-09T05:06:26;18.10;99.90
18597;DHT22;9428;50.950;6.912;2022-07-09T05:09:13;18.20;99.90
18597;DHT22;9428;50.950;6.912;2022-07-09T05:12:00;18.20;99.90
18597;DHT22;9428;50.950;6.912;2022-07-09T05:14:47;18.20;99.90
18597;DHT22;9428;50.950;6.912;2022-07-09T05:17:36;18.20;99.90
18597;DHT22;9428;50.950;6.912;2022-07-09T05:20:24;18.20;99.90
18597;DHT22;9428;50.950;6.912;2022-07-09T05:23:12;18.20;99.90
18597;DHT22;9428;50.950;6.912;2022-07-09T05:25:59;18.20;99.90
18597;DHT22;9428;50.950;6.912;2022-07-09T05:28:46;18.20;99.90
18597;DHT22;9428;50.950;6.912;2022-07-09T05:31:33;18.20;99.90
18597;DHT22;9428;50.950;6.912;2022-07-09T05:34:22;18.20;99.90
18597;DHT22;9428;50.950;6.912;2022-07-09T05:37:09;18.20;99.90
18597;DHT22;9428;50.950;6.912;2022-07-09T05:39:57;18.30;99.90
18597;DHT22;9428;50.950;6.912;2022-07-09T05:42:44;18.40;99.90
18597;DHT22;9428;50.950;6.912;2022-07-09T05:45:31;18.40;99.90
18597;DHT22;9428;50.950;6.912;2022-07-09T05:48:18;18.50;99.90
18597;DHT22;9428;50.950;6.912;2022-07-09T05:51:07;18.60;99.90
18597;DHT22;9428;50.950;6.912;2022-07-09T05:53:54;18.60;99.90
18597;DHT22;9428;50.950;6.912;2022-07-09T05:56:42;18.60;99.90
18597;DHT22;9428;50.950;6.912;2022-07-09T05:59:29;18.50;99.90
18597;DHT22;9428;50.950;6.912;2022-07-09T06:02:16;18.50;99.90
18597;DHT22;9428;50.950;6.912;2022-07-09T06:05:05;18.60;99.90
18597;DHT22;9428;50.950;6.912;2022-07-09T06:07:53;18.60;99.90
18597;DHT22;9428;50.950;6.912;2022-07-09T06:10:40;18.70;99.90
18597;DHT22;9428;50.950;6.912;2022-07-09T06:13:28;18.70;99.90
18597;DHT22;9428;50.950;6.912;2022-07-09T06:16:15;18.80;99.90
18597;DHT22;9428;50.950;6.912;2022-07-09T06:19:03;18.90;99.90
18597;DHT22;9428;50.950;6.912;2022-07-09T06:21:50;19.00;99.90
18597;DHT22;9428;50.950;6.912;2022-07-09T06:24:38;19.10;99.90
18597;DHT22;9428;50.950;6.912;2022-07-09T06:27:26;19.00;99.90
18597;DHT22;9428;50.950;6.912;2022-07-09T06:30:13;18.90;99.90
18597;DHT22;9428;50.950;6.912;2022-07-09T06:33:00;18.90;99.90
18597;DHT22;9428;50.950;6.912;2022-07-09T06:35:47;18.90;99.90
18597;DHT22;9428;50.950;6.912;2022-07-09T06:38:34;19.00;99.90
18597;DHT22;9428;50.950;6.912;2022-07-09T06:41:44;19.00;99.90
18597;DHT22;9428;50.950;6.912;2022-07-09T06:44:32;18.90;99.90
18597;DHT22;9428;50.950;6.912;2022-07-09T06:47:19;19.00;99.90
18597;DHT22;9428;50.950;6.912;2022-07-09T06:50:07;19.10;99.90
18597;DHT22;9428;50.950;6.912;2022-07-09T06:52:54;19.20;99.90
18597;DHT22;9428;50.950;6.912;2022-07-09T06:55:41;19.20;99.90
18597;DHT22;9428;50.950;6.912;2022-07-09T06:58:30;19.30;99.90
18597;DHT22;9428;50.950;6.912;2022-07-09T07:01:17;19.30;99.90
18597;DHT22;9428;50.950;6.912;2022-07-09T07:04:05;19.30;99.90
18597;DHT22;9428;50.950;6.912;2022-07-09T07:06:52;19.50;99.90
18597;DHT22;9428;50.950;6.912;2022-07-09T07:09:40;19.50;99.90
18597;DHT22;9428;50.950;6.912;2022-07-09T07:12:27;19.50;99.90
18597;DHT22;9428;50.950;6.912;2022-07-09T07:15:16;19.60;99.90
18597;DHT22;9428;50.950;6.912;2022-07-09T07:18:03;19.70;99.90
18597;DHT22;9428;50.950;6.912;2022-07-09T07:20:50;19.80;99.90
18597;DHT22;9428;50.950;6.912;2022-07-09T07:23:37;19.90;99.90
18597;DHT22;9428;50.950;6.912;2022-07-09T07:26:25;19.90;99.90
18597;DHT22;9428;50.950;6.912;2022-07-09T07:29:12;19.90;99.90
18597;DHT22;9428;50.950;6.912;2022-07-09T07:32:01;19.90;99.90
18597;DHT22;9428;50.950;6.912;2022-07-09T07:34:48;19.90;99.90
18597;DHT22;9428;50.950;6.912;2022-07-09T07:37:35;19.90;99.90
18597;DHT22;9428;50.950;6.912;2022-07-09T07:40:23;20.00;99.90
18597;DHT22;9428;50.950;6.912;2022-07-09T07:43:10;20.20;99.90
18597;DHT22;9428;50.950;6.912;2022-07-09T07:45:58;20.20;99.90
18597;DHT22;9428;50.950;6.912;2022-07-09T07:48:46;20.30;99.90
18597;DHT22;9428;50.950;6.912;2022-07-09T07:51:34;20.50;99.90
18597;DHT22;9428;50.950;6.912;2022-07-09T07:54:21;20.60;99.90
18597;DHT22;9428;50.950;6.912;2022-07-09T07:57:08;20.60;99.90
18597;DHT22;9428;50.950;6.912;2022-07-09T07:59:55;20.60;99.90
18597;DHT22;9428;50.950;6.912;2022-07-09T08:02:43;20.70;99.90
18597;DHT22;9428;50.950;6.912;2022-07-09T08:05:32;20.50;99.90
18597;DHT22;9428;50.950;6.912;2022-07-09T08:08:19;20.50;99.90
18597;DHT22;9428;50.950;6.912;2022-07-09T08:11:07;20.70;99.90
18597;DHT22;9428;50.950;6.912;2022-07-09T08:13:54;20.70;99.90
18597;DHT22;9428;50.950;6.912;2022-07-09T08:16:41;20.60;99.90
18597;DHT22;9428;50.950;6.912;2022-07-09T08:19:28;20.60;99.90
18597;DHT22;9428;50.950;6.912;2022-07-09T08:22:17;20.80;99.90
18597;DHT22;9428;50.950;6.912;2022-07-09T08:25:05;20.90;99.90
18597;DHT22;9428;50.950;6.912;2022-07-09T08:27:52;20.90;99.90
18597;DHT22;9428;50.950;6.912;2022-07-09T08:30:40;21.30;99.90
18597;DHT22;9428;50.950;6.912;2022-07-09T08:33:27;21.30;99.90
18597;DHT22;9428;50.950;6.912;2022-07-09T08:36:15;21.30;99.90
18597;DHT22;9428;50.950;6.912;2022-07-09T08:39:03;21.40;99.90
18597;DHT22;9428;50.950;6.912;2022-07-09T08:41:51;21.50;99.90
18597;DHT22;9428;50.950;6.912;2022-07-09T08:44:39;21.50;99.90
18597;DHT22;9428;50.950;6.912;2022-07-09T08:47:29;21.40;99.90
18597;DHT22;9428;50.950;6.912;2022-07-09T08:50:17;21.50;99.90
18597;DHT22;9428;50.950;6.912;2022-07-09T08:53:06;21.60;99.90
18597;DHT22;9428;50.950;6.912;2022-07-09T08:55:56;21.40;99.90
18597;DHT22;9428;50.950;6.912;2022-07-09T08:58:43;21.50;99.90
18597;DHT22;9428;50.950;6.912;2022-07-09T09:01:30;21.60;99.90
18597;DHT22;9428;50.950;6.912;2022-07-09T09:04:18;21.80;99.90
18597;DHT22;9428;50.950;6.912;2022-07-09T09:07:13;21.80;99.90
18597;DHT22;9428;50.950;6.912;2022-07-09T09:10:00;21.70;99.90
18597;DHT22;9428;50.950;6.912;2022-07-09T09:12:49;21.60;99.90
18597;DHT22;9428;50.950;6.912;2022-07-09T09:15:36;21.70;99.90
18597;DHT22;9428;50.950;6.912;2022-07-09T09:18:23;21.80;99.90
18597;DHT22;9428;50.950;6.912;2022-07-09T09:21:11;22.00;99.90
18597;DHT22;9428;50.950;6.912;2022-07-09T09:23:59;21.80;99.90
18597;DHT22;9428;50.950;6.912;2022-07-09T09:26:46;21.80;99.90
18597;DHT22;9428;50.950;6.912;2022-07-09T09:29:36;21.90;99.90
18597;DHT22;9428;50.950;6.912;2022-07-09T09:32:25;21.80;99.90
18597;DHT22;9428;50.950;6.912;2022-07-09T09:35:12;21.80;99.90
18597;DHT22;9428;50.950;6.912;2022-07-09T09:37:59;21.70;99.90
18597;DHT22;9428;50.950;6.912;2022-07-09T09:40:47;21.80;99.90
18597;DHT22;9428;50.950;6.912;2022-07-09T09:43:35;21.80;99.90
18597;DHT22;9428;50.950;6.912;2022-07-09T09:46:25;22.00;99.90
18597;DHT22;9428;50.950;6.912;2022-07-09T09:49:13;22.00;99.90
18597;DHT22;9428;50.950;6.912;2022-07-09T09:52:03;22.30;99.90
18597;DHT22;9428;50.950;6.912;2022-07-09T09:54:52;22.50;99.90
18597;DHT22;9428;50.950;6.912;2022-07-09T09:57:39;22.70;99.90
18597;DHT22;9428;50.950;6.912;2022-07-09T10:00:27;22.80;99.90
18597;DHT22;9428;50.950;6.912;2022-07-09T10:03:16;22.80;99.90
18597;DHT22;9428;50.950;6.912;2022-07-09T10:06:05;22.80;99.90
18597;DHT22;9428;50.950;6.912;2022-07-09T10:08:53;22.90;99.90
18597;DHT22;9428;50.950;6.912;2022-07-09T10:11:42;22.90;99.90
18597;DHT22;9428;50.950;6.912;2022-07-09T10:14:31;21.90;99.90
18597;DHT22;9428;50.950;6.912;2022-07-09T10:17:18;22.90;99.90
18597;DHT22;9428;50.950;6.912;2022-07-09T10:20:08;23.00;99.90
18597;DHT22;9428;50.950;6.912;2022-07-09T10:22:57;23.00;99.90
18597;DHT22;9428;50.950;6.912;2022-07-09T10:25:45;23.10;99.90
18597;DHT22;9428;50.950;6.912;2022-07-09T10:28:40;23.20;99.90
18597;DHT22;9428;50.950;6.912;2022-07-09T10:31:28;23.30;99.90
18597;DHT22;9428;50.950;6.912;2022-07-09T10:34:33;23.10;99.90
18597;DHT22;9428;50.950;6.912;2022-07-09T10:37:41;23.10;99.90
18597;DHT22;9428;50.950;6.912;2022-07-09T10:40:38;23.20;99.90
18597;DHT22;9428;50.950;6.912;2022-07-09T10:43:37;23.20;99.90
18597;DHT22;9428;50.950;6.912;2022-07-09T10:46:25;23.20;99.90
18597;DHT22;9428;50.950;6.912;2022-07-09T10:49:13;22.90;99.90
18597;DHT22;9428;50.950;6.912;2022-07-09T10:52:01;23.10;99.90
18597;DHT22;9428;50.950;6.912;2022-07-09T10:54:49;23.20;99.90
18597;DHT22;9428;50.950;6.912;2022-07-09T10:57:38;23.40;99.90
18597;DHT22;9428;50.950;6.912;2022-07-09T11:00:28;23.50;99.90
18597;DHT22;9428;50.950;6.912;2022-07-09T11:03:23;23.40;99.90
18597;DHT22;9428;50.950;6.912;2022-07-09T11:06:10;23.30;99.90
18597;DHT22;9428;50.950;6.912;2022-07-09T11:08:58;23.20;99.90
18597;DHT22;9428;50.950;6.912;2022-07-09T11:11:46;23.20;99.90
18597;DHT22;9428;50.950;6.912;2022-07-09T11:14:43;23.10;99.90
18597;DHT22;9428;50.950;6.912;2022-07-09T11:17:30;23.40;99.90
18597;DHT22;9428;50.950;6.912;2022-07-09T11:20:17;23.40;99.90
18597;DHT22;9428;50.950;6.912;2022-07-09T11:23:05;23.40;99.90
18597;DHT22;9428;50.950;6.912;2022-07-09T11:25:52;23.20;99.90
18597;DHT22;9428;50.950;6.912;2022-07-09T11:28:41;23.10;99.90
18597;DHT22;9428;50.950;6.912;2022-07-09T11:31:28;23.00;99.90
18597;DHT22;9428;50.950;6.912;2022-07-09T11:34:17;23.10;99.90
18597;DHT22;9428;50.950;6.912;2022-07-09T11:37:05;23.10;99.90
18597;DHT22;9428;50.950;6.912;2022-07-09T11:39:55;23.40;99.90
18597;DHT22;9428;50.950;6.912;2022-07-09T11:42:43;23.40;99.90
18597;DHT22;9428;50.950;6.912;2022-07-09T11:45:31;23.50;99.90
18597;DHT22;9428;50.950;6.912;2022-07-09T11:48:19;23.20;99.90
18597;DHT22;9428;50.950;6.912;2022-07-09T11:51:06;23.00;99.90
18597;DHT22;9428;50.950;6.912;2022-07-09T11:53:53;23.10;99.90
18597;DHT22;9428;50.950;6.912;2022-07-09T11:56:41;23.30;99.90
18597;DHT22;9428;50.950;6.912;2022-07-09T11:59:30;23.40;99.90
18597;DHT22;9428;50.950;6.912;2022-07-09T12:02:29;23.40;99.90
18597;DHT22;9428;50.950;6.912;2022-07-09T12:05:25;23.40;99.90
18597;DHT22;9428;50.950;6.912;2022-07-09T12:08:13;23.50;99.90
18597;DHT22;9428;50.950;6.912;2022-07-09T12:11:01;23.50;99.90
18597;DHT22;9428;50.950;6.912;2022-07-09T12:13:48;23.70;99.90
18597;DHT22;9428;50.950;6.912;2022-07-09T12:16:35;23.70;99.90
18597;DHT22;9428;50.950;6.912;2022-07-09T12:19:24;23.70;99.90
18597;DHT22;9428;50.950;6.912;2022-07-09T12:22:11;23.70;99.90
18597;DHT22;9428;50.950;6.912;2022-07-09T12:24:58;23.60;99.90
18597;DHT22;9428;50.950;6.912;2022-07-09T12:27:46;23.50;99.90
18597;DHT22;9428;50.950;6.912;2022-07-09T12:30:35;23.40;99.90
18597;DHT22;9428;50.950;6.912;2022-07-09T12:33:22;23.40;99.90
18597;DHT22;9428;50.950;6.912;2022-07-09T12:36:10;23.30;99.90
18597;DHT22;9428;50.950;6.912;2022-07-09T12:38:58;23.10;99.90
18597;DHT22;9428;50.950;6.912;2022-07-09T12:41:45;23.20;99.90
18597;DHT22;9428;50.950;6.912;2022-07-09T12:44:33;23.30;99.90
18597;DHT22;9428;50.950;6.912;2022-07-09T12:47:20;23.50;99.90
18597;DHT22;9428;50.950;6.912;2022-07-09T12:50:08;23.70;99.90
18597;DHT22;9428;50.950;6.912;2022-07-09T12:52:58;23.50;99.90
18597;DHT22;9428;50.950;6.912;2022-07-09T12:55:46;23.40;99.90
18597;DHT22;9428;50.950;6.912;2022-07-09T12:58:34;23.30;99.90
18597;DHT22;9428;50.950;6.912;2022-07-09T13:01:21;23.20;99.90
18597;DHT22;9428;50.950;6.912;2022-07-09T13:04:08;23.10;99.90
18597;DHT22;9428;50.950;6.912;2022-07-09T13:06:56;23.00;99.90
18597;DHT22;9428;50.950;6.912;2022-07-09T13:09:44;22.80;99.90
18597;DHT22;9428;50.950;6.912;2022-07-09T13:12:32;22.20;99.90
18597;DHT22;9428;50.950;6.912;2022-07-09T13:15:19;21.50;99.90
18597;DHT22;9428;50.950;6.912;2022-07-09T13:18:08;21.30;99.90
18597;DHT22;9428;50.950;6.912;2022-07-09T13:20:55;21.00;99.90
18597;DHT22;9428;50.950;6.912;2022-07-09T13:23:42;20.90;99.90
18597;DHT22;9428;50.950;6.912;2022-07-09T13:26:31;20.90;99.90
18597;DHT22;9428;50.950;6.912;2022-07-09T13:29:18;20.80;99.90
18597;DHT22;9428;50.950;6.912;2022-07-09T13:32:07;20.80;99.90
18597;DHT22;9428;50.950;6.912;2022-07-09T13:34:54;20.90;99.90
18597;DHT22;9428;50.950;6.912;2022-07-09T13:37:41;20.90;99.90
18597;DHT22;9428;50.950;6.912;2022-07-09T13:40:29;20.80;99.90
18597;DHT22;9428;50.950;6.912;2022-07-09T13:43:18;20.90;99.90
18597;DHT22;9428;50.950;6.912;2022-07-09T13:46:05;20.90;99.90
18597;DHT22;9428;50.950;6.912;2022-07-09T13:48:53;21.00;99.90
18597;DHT22;9428;50.950;6.912;2022-07-09T13:51:40;21.00;99.90
18597;DHT22;9428;50.950;6.912;2022-07-09T13:54:27;21.10;99.90
18597;DHT22;9428;50.950;6.912;2022-07-09T13:57:14;21.40;99.90
18597;DHT22;9428;50.950;6.912;2022-07-09T14:00:05;21.30;99.90
18597;DHT22;9428;50.950;6.912;2022-07-09T14:02:52;21.30;99.90
18597;DHT22;9428;50.950;6.912;2022-07-09T14:05:39;21.20;99.90
18597;DHT22;9428;50.950;6.912;2022-07-09T14:08:27;21.30;99.90
18597;DHT22;9428;50.950;6.912;2022-07-09T14:11:14;21.40;99.90
18597;DHT22;9428;50.950;6.912;2022-07-09T14:14:01;21.50;99.90
18597;DHT22;9428;50.950;6.912;2022-07-09T14:16:50;21.70;99.90
18597;DHT22;9428;50.950;6.912;2022-07-09T14:19:37;21.80;99.90
18597;DHT22;9428;50.950;6.912;2022-07-09T14:22:24;21.70;99.90
18597;DHT22;9428;50.950;6.912;2022-07-09T14:25:12;21.80;99.90
18597;DHT22;9428;50.950;6.912;2022-07-09T14:27:59;21.90;99.90
18597;DHT22;9428;50.950;6.912;2022-07-09T14:30:46;22.00;99.90
18597;DHT22;9428;50.950;6.912;2022-07-09T14:33:35;22.00;99.90
18597;DHT22;9428;50.950;6.912;2022-07-09T14:36:23;22.10;99.90
18597;DHT22;9428;50.950;6.912;2022-07-09T14:39:10;22.20;99.90
18597;DHT22;9428;50.950;6.912;2022-07-09T14:41:57;22.30;99.90
18597;DHT22;9428;50.950;6.912;2022-07-09T14:44:45;22.60;99.90
18597;DHT22;9428;50.950;6.912;2022-07-09T14:47:32;22.60;99.90
18597;DHT22;9428;50.950;6.912;2022-07-09T14:50:20;22.30;99.90
18597;DHT22;9428;50.950;6.912;2022-07-09T14:53:08;22.30;99.90
18597;DHT22;9428;50.950;6.912;2022-07-09T14:55:55;22.30;99.90
18597;DHT22;9428;50.950;6.912;2022-07-09T14:58:42;22.10;99.90
18597;DHT22;9428;50.950;6.912;2022-07-09T15:01:29;22.10;99.90
18597;DHT22;9428;50.950;6.912;2022-07-09T15:04:17;22.20;99.90
18597;DHT22;9428;50.950;6.912;2022-07-09T15:07:07;22.20;99.90
18597;DHT22;9428;50.950;6.912;2022-07-09T15:09:54;22.30;99.90
18597;DHT22;9428;50.950;6.912;2022-07-09T15:12:41;22.30;99.90
18597;DHT22;9428;50.950;6.912;2022-07-09T15:15:29;22.40;99.90
18597;DHT22;9428;50.950;6.912;2022-07-09T15:18:16;22.30;99.90
18597;DHT22;9428;50.950;6.912;2022-07-09T15:21:03;22.50;99.90
18597;DHT22;9428;50.950;6.912;2022-07-09T15:23:53;22.60;99.90
18597;DHT22;9428;50.950;6.912;2022-07-09T15:26:40;22.70;99.90
18597;DHT22;9428;50.950;6.912;2022-07-09T15:29:27;22.80;99.90
18597;DHT22;9428;50.950;6.912;2022-07-09T15:32:15;22.80;99.90
18597;DHT22;9428;50.950;6.912;2022-07-09T15:35:03;22.80;99.90
18597;DHT22;9428;50.950;6.912;2022-07-09T15:37:51;23.00;99.90
18597;DHT22;9428;50.950;6.912;2022-07-09T15:40:40;23.10;99.90
18597;DHT22;9428;50.950;6.912;2022-07-09T15:43:27;23.00;99.90
18597;DHT22;9428;50.950;6.912;2022-07-09T15:46:15;22.90;99.90
18597;DHT22;9428;50.950;6.912;2022-07-09T15:49:02;22.90;99.90
18597;DHT22;9428;50.950;6.912;2022-07-09T15:51:49;22.80;99.90
18597;DHT22;9428;50.950;6.912;2022-07-09T15:54:36;22.90;99.90
18597;DHT22;9428;50.950;6.912;2022-07-09T15:57:25;22.80;99.90
18597;DHT22;9428;50.950;6.912;2022-07-09T16:00:13;22.80;99.90
18597;DHT22;9428;50.950;6.912;2022-07-09T16:03:00;22.70;99.90
18597;DHT22;9428;50.950;6.912;2022-07-09T16:05:49;22.70;99.90
18597;DHT22;9428;50.950;6.912;2022-07-09T16:08:36;22.70;99.90
18597;DHT22;9428;50.950;6.912;2022-07-09T16:11:24;22.70;99.90
18597;DHT22;9428;50.950;6.912;2022-07-09T16:14:31;22.60;99.90
18597;DHT22;9428;50.950;6.912;2022-07-09T16:17:18;22.60;99.90
18597;DHT22;9428;50.950;6.912;2022-07-09T16:20:07;22.60;99.90
18597;DHT22;9428;50.950;6.912;2022-07-09T16:22:54;22.60;99.90
18597;DHT22;9428;50.950;6.912;2022-07-09T16:25:47;22.60;99.90
18597;DHT22;9428;50.950;6.912;2022-07-09T16:28:35;22.50;99.90
18597;DHT22;9428;50.950;6.912;2022-07-09T16:31:24;22.50;99.90
18597;DHT22;9428;50.950;6.912;2022-07-09T16:34:11;22.50;99.90
18597;DHT22;9428;50.950;6.912;2022-07-09T16:36:58;22.50;99.90
18597;DHT22;9428;50.950;6.912;2022-07-09T16:39:46;22.60;99.90
18597;DHT22;9428;50.950;6.912;2022-07-09T16:42:33;22.70;99.90
18597;DHT22;9428;50.950;6.912;2022-07-09T16:45:20;22.60;99.90
18597;DHT22;9428;50.950;6.912;2022-07-09T16:48:10;22.70;99.90
18597;DHT22;9428;50.950;6.912;2022-07-09T16:50:58;22.70;99.90
18597;DHT22;9428;50.950;6.912;2022-07-09T16:53:45;22.60;99.90
18597;DHT22;9428;50.950;6.912;2022-07-09T16:56:33;22.70;99.90
18597;DHT22;9428;50.950;6.912;2022-07-09T16:59:22;22.70;99.90
18597;DHT22;9428;50.950;6.912;2022-07-09T17:02:10;22.60;99.90
18597;DHT22;9428;50.950;6.912;2022-07-09T17:04:58;22.70;99.90
18597;DHT22;9428;50.950;6.912;2022-07-09T17:07:45;22.60;99.90
18597;DHT22;9428;50.950;6.912;2022-07-09T17:10:33;22.60;99.90
18597;DHT22;9428;50.950;6.912;2022-07-09T17:13:20;22.50;99.90
18597;DHT22;9428;50.950;6.912;2022-07-09T17:16:07;22.40;99.90
18597;DHT22;9428;50.950;6.912;2022-07-09T17:18:54;22.40;99.90
18597;DHT22;9428;50.950;6.912;2022-07-09T17:21:43;22.30;99.90
18597;DHT22;9428;50.950;6.912;2022-07-09T17:24:30;22.10;99.90
18597;DHT22;9428;50.950;6.912;2022-07-09T17:27:18;22.10;99.90
18597;DHT22;9428;50.950;6.912;2022-07-09T17:30:06;22.00;99.90
18597;DHT22;9428;50.950;6.912;2022-07-09T17:32:53;22.00;99.90
18597;DHT22;9428;50.950;6.912;2022-07-09T17:35:43;22.00;99.90
18597;DHT22;9428;50.950;6.912;2022-07-09T17:38:31;22.00;99.90
18597;DHT22;9428;50.950;6.912;2022-07-09T17:41:19;22.00;99.90
18597;DHT22;9428;50.950;6.912;2022-07-09T17:44:06;21.90;99.90
18597;DHT22;9428;50.950;6.912;2022-07-09T17:46:53;21.90;99.90
18597;DHT22;9428;50.950;6.912;2022-07-09T17:49:41;21.90;99.90
18597;DHT22;9428;50.950;6.912;2022-07-09T17:52:28;22.00;99.90
18597;DHT22;9428;50.950;6.912;2022-07-09T17:55:17;22.00;99.90
18597;DHT22;9428;50.950;6.912;2022-07-09T17:58:07;22.00;99.90